sensor_id;sensor_type;location;lat;lon;timestamp;P1;durP1;ratioP1;P2;durP2;ratioP2
1344;SDS011;15375;48.540;9.268;2022-07-29T00:00:58;7.57;;;7.07;;
1344;SDS011;15375;48.540;9.268;2022-07-29T00:03:23;8.20;;;7.60;;
1344;SDS011;15375;48.540;9.268;2022-07-29T00:05:49;7.53;;;6.93;;
1344;SDS011;15375;48.540;9.268;2022-07-29T00:08:14;7.43;;;6.23;;
1344;SDS011;15375;48.540;9.268;2022-07-29T00:10:40;5.93;;;5.50;;
1344;SDS011;15375;48.540;9.268;2022-07-29T00:13:06;5.80;;;5.30;;
1344;SDS011;15375;48.540;9.268;2022-07-29T00:15:32;4.93;;;4.57;;
1344;SDS011;15375;48.540;9.268;2022-07-29T00:17:57;4.83;;;4.43;;
1344;SDS011;15375;48.540;9.268;2022-07-29T00:20:23;7.03;;;4.80;;
1344;SDS011;15375;48.540;9.268;2022-07-29T00:22:48;4.90;;;4.50;;
1344;SDS011;15375;48.540;9.268;2022-07-29T00:25:13;4.47;;;4.07;;
1344;SDS011;15375;48.540;9.268;2022-07-29T00:27:39;4.50;;;4.10;;
1344;SDS011;15375;48.540;9.268;2022-07-29T00:30:05;4.50;;;4.20;;
1344;SDS011;15375;48.540;9.268;2022-07-29T00:32:31;7.60;;;4.20;;
1344;SDS011;15375;48.540;9.268;2022-07-29T00:34:56;4.60;;;4.20;;
1344;SDS011;15375;48.540;9.268;2022-07-29T00:37:40;4.40;;;4.10;;
1344;SDS011;15375;48.540;9.268;2022-07-29T00:40:06;4.67;;;4.30;;
1344;SDS011;15375;48.540;9.268;2022-07-29T00:42:41;4.17;;;3.87;;
1344;SDS011;15375;48.540;9.268;2022-07-29T00:45:14;4.23;;;3.90;;
1344;SDS011;15375;48.540;9.268;2022-07-29T00:47:40;3.80;;;3.50;;
1344;SDS011;15375;48.540;9.268;2022-07-29T00:50:07;4.40;;;4.00;;
1344;SDS011;15375;48.540;9.268;2022-07-29T00:52:35;5.87;;;4.30;;
1344;SDS011;15375;48.540;9.268;2022-07-29T00:55:05;4.13;;;3.83;;
1344;SDS011;15375;48.540;9.268;2022-07-29T00:57:33;3.97;;;3.70;;
1344;SDS011;15375;48.540;9.268;2022-07-29T00:59:59;4.17;;;3.80;;
1344;SDS011;15375;48.540;9.268;2022-07-29T01:02:25;4.70;;;4.30;;
1344;SDS011;15375;48.540;9.268;2022-07-29T01:04:50;4.63;;;4.33;;
1344;SDS011;15375;48.540;9.268;2022-07-29T01:07:16;4.47;;;4.10;;
1344;SDS011;15375;48.540;9.268;2022-07-29T01:09:43;4.23;;;3.83;;
1344;SDS011;15375;48.540;9.268;2022-07-29T01:12:10;4.93;;;4.50;;
1344;SDS011;15375;48.540;9.268;2022-07-29T01:14:37;4.87;;;4.47;;
1344;SDS011;15375;48.540;9.268;2022-07-29T01:28:32;4.50;;;4.20;;
1344;SDS011;15375;48.540;9.268;2022-07-29T01:31:28;4.77;;;4.37;;
1344;SDS011;15375;48.540;9.268;2022-07-29T01:34:17;4.47;;;4.17;;
1344;SDS011;15375;48.540;9.268;2022-07-29T01:36:50;4.03;;;3.77;;
1344;SDS011;15375;48.540;9.268;2022-07-29T01:39:26;6.23;;;5.13;;
1344;SDS011;15375;48.540;9.268;2022-07-29T01:47:37;5.23;;;4.83;;
1344;SDS011;15375;48.540;9.268;2022-07-29T01:50:07;5.53;;;5.13;;
1344;SDS011;15375;48.540;9.268;2022-07-29T01:55:22;4.97;;;4.57;;
1344;SDS011;15375;48.540;9.268;2022-07-29T01:57:52;5.10;;;4.80;;
1344;SDS011;15375;48.540;9.268;2022-07-29T02:00:17;6.13;;;5.63;;
1344;SDS011;15375;48.540;9.268;2022-07-29T02:02:44;6.40;;;5.80;;
1344;SDS011;15375;48.540;9.268;2022-07-29T02:05:12;5.23;;;4.83;;
1344;SDS011;15375;48.540;9.268;2022-07-29T02:07:40;5.90;;;5.40;;
1344;SDS011;15375;48.540;9.268;2022-07-29T02:10:08;5.17;;;4.67;;
1344;SDS011;15375;48.540;9.268;2022-07-29T02:12:35;5.37;;;4.93;;
1344;SDS011;15375;48.540;9.268;2022-07-29T02:15:03;5.00;;;4.57;;
1344;SDS011;15375;48.540;9.268;2022-07-29T02:17:33;4.70;;;4.40;;
1344;SDS011;15375;48.540;9.268;2022-07-29T02:20:04;5.80;;;5.40;;
1344;SDS011;15375;48.540;9.268;2022-07-29T02:22:31;5.70;;;5.07;;
1344;SDS011;15375;48.540;9.268;2022-07-29T02:25:00;5.43;;;5.03;;
1344;SDS011;15375;48.540;9.268;2022-07-29T02:27:26;4.60;;;4.20;;
1344;SDS011;15375;48.540;9.268;2022-07-29T02:29:53;6.27;;;5.77;;
1344;SDS011;15375;48.540;9.268;2022-07-29T02:32:21;4.30;;;4.00;;
1344;SDS011;15375;48.540;9.268;2022-07-29T02:34:49;5.10;;;4.67;;
1344;SDS011;15375;48.540;9.268;2022-07-29T02:37:16;6.13;;;5.60;;
1344;SDS011;15375;48.540;9.268;2022-07-29T02:39:43;6.27;;;5.67;;
1344;SDS011;15375;48.540;9.268;2022-07-29T02:42:12;6.10;;;5.60;;
1344;SDS011;15375;48.540;9.268;2022-07-29T02:44:39;5.57;;;5.10;;
1344;SDS011;15375;48.540;9.268;2022-07-29T02:47:26;5.13;;;4.73;;
1344;SDS011;15375;48.540;9.268;2022-07-29T02:50:00;6.07;;;5.57;;
1344;SDS011;15375;48.540;9.268;2022-07-29T02:57:36;5.80;;;5.20;;
1344;SDS011;15375;48.540;9.268;2022-07-29T03:00:11;4.70;;;4.40;;
1344;SDS011;15375;48.540;9.268;2022-07-29T03:02:37;5.93;;;5.37;;
1344;SDS011;15375;48.540;9.268;2022-07-29T03:05:07;4.93;;;4.43;;
1344;SDS011;15375;48.540;9.268;2022-07-29T03:07:35;6.67;;;6.17;;
1344;SDS011;15375;48.540;9.268;2022-07-29T03:10:03;5.67;;;5.17;;
1344;SDS011;15375;48.540;9.268;2022-07-29T03:12:31;5.30;;;4.90;;
1344;SDS011;15375;48.540;9.268;2022-07-29T03:14:57;5.90;;;5.40;;
1344;SDS011;15375;48.540;9.268;2022-07-29T03:17:24;6.23;;;5.67;;
1344;SDS011;15375;48.540;9.268;2022-07-29T03:19:50;6.20;;;5.80;;
1344;SDS011;15375;48.540;9.268;2022-07-29T03:22:16;7.13;;;6.53;;
1344;SDS011;15375;48.540;9.268;2022-07-29T03:24:41;6.00;;;5.50;;
1344;SDS011;15375;48.540;9.268;2022-07-29T03:27:07;7.73;;;6.50;;
1344;SDS011;15375;48.540;9.268;2022-07-29T03:29:32;6.77;;;6.20;;
1344;SDS011;15375;48.540;9.268;2022-07-29T03:31:58;6.23;;;5.73;;
1344;SDS011;15375;48.540;9.268;2022-07-29T03:34:23;8.77;;;6.20;;
1344;SDS011;15375;48.540;9.268;2022-07-29T03:36:49;7.60;;;6.00;;
1344;SDS011;15375;48.540;9.268;2022-07-29T03:39:15;6.90;;;6.37;;
1344;SDS011;15375;48.540;9.268;2022-07-29T03:41:45;7.03;;;6.43;;
1344;SDS011;15375;48.540;9.268;2022-07-29T03:44:13;7.30;;;6.70;;
1344;SDS011;15375;48.540;9.268;2022-07-29T03:46:41;7.77;;;6.27;;
1344;SDS011;15375;48.540;9.268;2022-07-29T03:49:09;7.80;;;6.97;;
1344;SDS011;15375;48.540;9.268;2022-07-29T03:51:37;8.50;;;7.20;;
1344;SDS011;15375;48.540;9.268;2022-07-29T03:54:03;6.63;;;6.13;;
1344;SDS011;15375;48.540;9.268;2022-07-29T03:56:29;8.60;;;7.80;;
1344;SDS011;15375;48.540;9.268;2022-07-29T03:58:59;8.20;;;7.60;;
1344;SDS011;15375;48.540;9.268;2022-07-29T04:01:26;10.63;;;8.60;;
1344;SDS011;15375;48.540;9.268;2022-07-29T04:03:53;10.10;;;8.13;;
1344;SDS011;15375;48.540;9.268;2022-07-29T04:06:18;9.07;;;7.87;;
1344;SDS011;15375;48.540;9.268;2022-07-29T04:08:44;6.70;;;6.10;;
1344;SDS011;15375;48.540;9.268;2022-07-29T04:11:09;8.40;;;7.60;;
1344;SDS011;15375;48.540;9.268;2022-07-29T04:13:35;7.33;;;6.73;;
1344;SDS011;15375;48.540;9.268;2022-07-29T04:16:00;8.40;;;7.70;;
1344;SDS011;15375;48.540;9.268;2022-07-29T04:18:25;8.10;;;7.40;;
1344;SDS011;15375;48.540;9.268;2022-07-29T04:20:51;7.90;;;7.30;;
1344;SDS011;15375;48.540;9.268;2022-07-29T04:23:16;7.80;;;7.10;;
1344;SDS011;15375;48.540;9.268;2022-07-29T04:25:42;7.27;;;6.67;;
1344;SDS011;15375;48.540;9.268;2022-07-29T04:28:08;8.43;;;7.63;;
1344;SDS011;15375;48.540;9.268;2022-07-29T04:30:35;6.30;;;5.80;;
1344;SDS011;15375;48.540;9.268;2022-07-29T04:33:01;10.47;;;6.07;;
1344;SDS011;15375;48.540;9.268;2022-07-29T04:35:29;6.87;;;6.23;;
1344;SDS011;15375;48.540;9.268;2022-07-29T04:37:56;7.70;;;7.10;;
1344;SDS011;15375;48.540;9.268;2022-07-29T04:40:21;6.47;;;5.20;;
1344;SDS011;15375;48.540;9.268;2022-07-29T04:42:47;7.33;;;6.63;;
1344;SDS011;15375;48.540;9.268;2022-07-29T04:45:12;6.53;;;6.03;;
1344;SDS011;15375;48.540;9.268;2022-07-29T04:47:38;7.87;;;7.17;;
1344;SDS011;15375;48.540;9.268;2022-07-29T04:50:04;7.03;;;6.10;;
1344;SDS011;15375;48.540;9.268;2022-07-29T04:52:31;5.67;;;5.17;;
1344;SDS011;15375;48.540;9.268;2022-07-29T04:54:57;6.03;;;5.53;;
1344;SDS011;15375;48.540;9.268;2022-07-29T04:57:22;6.83;;;6.37;;
1344;SDS011;15375;48.540;9.268;2022-07-29T04:59:48;6.50;;;5.90;;
1344;SDS011;15375;48.540;9.268;2022-07-29T05:02:14;9.20;;;6.17;;
1344;SDS011;15375;48.540;9.268;2022-07-29T05:04:39;7.90;;;7.20;;
1344;SDS011;15375;48.540;9.268;2022-07-29T05:07:04;6.63;;;6.13;;
1344;SDS011;15375;48.540;9.268;2022-07-29T05:09:30;5.90;;;5.27;;
1344;SDS011;15375;48.540;9.268;2022-07-29T05:11:57;8.27;;;6.47;;
1344;SDS011;15375;48.540;9.268;2022-07-29T05:14:22;6.10;;;5.60;;
1344;SDS011;15375;48.540;9.268;2022-07-29T05:16:48;6.63;;;6.03;;
1344;SDS011;15375;48.540;9.268;2022-07-29T05:19:15;6.73;;;6.17;;
1344;SDS011;15375;48.540;9.268;2022-07-29T05:21:41;6.63;;;6.13;;
1344;SDS011;15375;48.540;9.268;2022-07-29T05:24:07;8.07;;;7.33;;
1344;SDS011;15375;48.540;9.268;2022-07-29T05:26:33;7.20;;;6.60;;
1344;SDS011;15375;48.540;9.268;2022-07-29T05:28:58;6.70;;;6.10;;
1344;SDS011;15375;48.540;9.268;2022-07-29T05:31:23;6.07;;;5.53;;
1344;SDS011;15375;48.540;9.268;2022-07-29T05:33:49;6.90;;;6.20;;
1344;SDS011;15375;48.540;9.268;2022-07-29T05:36:14;7.10;;;6.50;;
1344;SDS011;15375;48.540;9.268;2022-07-29T05:38:40;7.33;;;6.73;;
1344;SDS011;15375;48.540;9.268;2022-07-29T05:41:05;6.53;;;6.00;;
1344;SDS011;15375;48.540;9.268;2022-07-29T05:43:31;6.70;;;6.17;;
1344;SDS011;15375;48.540;9.268;2022-07-29T05:45:57;6.00;;;5.50;;
1344;SDS011;15375;48.540;9.268;2022-07-29T05:48:22;5.77;;;5.37;;
1344;SDS011;15375;48.540;9.268;2022-07-29T05:50:48;5.77;;;5.37;;
1344;SDS011;15375;48.540;9.268;2022-07-29T05:53:13;12.13;;;11.00;;
1344;SDS011;15375;48.540;9.268;2022-07-29T05:55:38;9.13;;;8.27;;
1344;SDS011;15375;48.540;9.268;2022-07-29T05:58:04;8.07;;;7.37;;
1344;SDS011;15375;48.540;9.268;2022-07-29T06:00:29;7.10;;;6.60;;
1344;SDS011;15375;48.540;9.268;2022-07-29T06:02:55;6.87;;;6.27;;
1344;SDS011;15375;48.540;9.268;2022-07-29T06:05:20;7.10;;;6.60;;
1344;SDS011;15375;48.540;9.268;2022-07-29T06:07:46;6.20;;;5.60;;
1344;SDS011;15375;48.540;9.268;2022-07-29T06:10:11;5.43;;;5.03;;
1344;SDS011;15375;48.540;9.268;2022-07-29T06:12:37;6.10;;;5.70;;
1344;SDS011;15375;48.540;9.268;2022-07-29T06:15:02;6.23;;;5.80;;
1344;SDS011;15375;48.540;9.268;2022-07-29T06:17:30;5.70;;;5.20;;
1344;SDS011;15375;48.540;9.268;2022-07-29T06:19:55;5.80;;;5.30;;
1344;SDS011;15375;48.540;9.268;2022-07-29T06:22:20;6.07;;;5.63;;
1344;SDS011;15375;48.540;9.268;2022-07-29T06:24:46;5.13;;;4.73;;
1344;SDS011;15375;48.540;9.268;2022-07-29T06:27:11;6.87;;;6.20;;
1344;SDS011;15375;48.540;9.268;2022-07-29T06:29:36;6.50;;;6.00;;
1344;SDS011;15375;48.540;9.268;2022-07-29T06:32:02;5.77;;;5.37;;
1344;SDS011;15375;48.540;9.268;2022-07-29T06:34:27;7.00;;;5.80;;
1344;SDS011;15375;48.540;9.268;2022-07-29T06:36:53;5.93;;;5.43;;
1344;SDS011;15375;48.540;9.268;2022-07-29T06:39:18;5.23;;;4.73;;
1344;SDS011;15375;48.540;9.268;2022-07-29T06:41:47;5.30;;;4.87;;
1344;SDS011;15375;48.540;9.268;2022-07-29T06:44:14;5.47;;;5.07;;
1344;SDS011;15375;48.540;9.268;2022-07-29T06:46:40;4.80;;;4.50;;
1344;SDS011;15375;48.540;9.268;2022-07-29T06:49:06;4.40;;;4.10;;
1344;SDS011;15375;48.540;9.268;2022-07-29T06:51:32;5.90;;;5.33;;
1344;SDS011;15375;48.540;9.268;2022-07-29T06:53:58;6.43;;;5.97;;
1344;SDS011;15375;48.540;9.268;2022-07-29T06:56:23;5.73;;;5.23;;
1344;SDS011;15375;48.540;9.268;2022-07-29T06:58:50;9.93;;;6.17;;
1344;SDS011;15375;48.540;9.268;2022-07-29T07:01:15;5.20;;;4.90;;
1344;SDS011;15375;48.540;9.268;2022-07-29T07:03:40;5.67;;;5.27;;
1344;SDS011;15375;48.540;9.268;2022-07-29T07:06:07;5.17;;;4.77;;
1344;SDS011;15375;48.540;9.268;2022-07-29T07:08:32;5.90;;;5.50;;
1344;SDS011;15375;48.540;9.268;2022-07-29T07:10:58;5.30;;;4.93;;
1344;SDS011;15375;48.540;9.268;2022-07-29T07:13:23;7.43;;;5.47;;
1344;SDS011;15375;48.540;9.268;2022-07-29T07:15:49;5.37;;;4.87;;
1344;SDS011;15375;48.540;9.268;2022-07-29T07:18:16;5.70;;;5.20;;
1344;SDS011;15375;48.540;9.268;2022-07-29T07:20:42;4.77;;;4.47;;
1344;SDS011;15375;48.540;9.268;2022-07-29T07:23:08;5.03;;;4.50;;
1344;SDS011;15375;48.540;9.268;2022-07-29T07:25:33;4.43;;;4.13;;
1344;SDS011;15375;48.540;9.268;2022-07-29T07:27:59;6.00;;;4.70;;
1344;SDS011;15375;48.540;9.268;2022-07-29T07:30:25;4.70;;;4.40;;
1344;SDS011;15375;48.540;9.268;2022-07-29T07:32:51;5.60;;;4.10;;
1344;SDS011;15375;48.540;9.268;2022-07-29T07:35:16;5.40;;;5.00;;
1344;SDS011;15375;48.540;9.268;2022-07-29T07:37:42;6.17;;;4.90;;
1344;SDS011;15375;48.540;9.268;2022-07-29T07:40:08;4.20;;;3.90;;
1344;SDS011;15375;48.540;9.268;2022-07-29T07:42:35;4.30;;;4.00;;
1344;SDS011;15375;48.540;9.268;2022-07-29T07:45:00;5.83;;;4.53;;
1344;SDS011;15375;48.540;9.268;2022-07-29T07:47:26;4.57;;;4.23;;
1344;SDS011;15375;48.540;9.268;2022-07-29T07:49:51;4.67;;;4.27;;
1344;SDS011;15375;48.540;9.268;2022-07-29T07:52:18;5.83;;;4.87;;
1344;SDS011;15375;48.540;9.268;2022-07-29T07:54:45;4.97;;;4.53;;
1344;SDS011;15375;48.540;9.268;2022-07-29T07:57:11;4.60;;;4.30;;
1344;SDS011;15375;48.540;9.268;2022-07-29T07:59:37;5.00;;;4.60;;
1344;SDS011;15375;48.540;9.268;2022-07-29T08:02:03;4.97;;;4.57;;
1344;SDS011;15375;48.540;9.268;2022-07-29T08:04:29;4.57;;;4.17;;
1344;SDS011;15375;48.540;9.268;2022-07-29T08:06:54;4.70;;;4.37;;
1344;SDS011;15375;48.540;9.268;2022-07-29T08:09:21;4.93;;;4.63;;
1344;SDS011;15375;48.540;9.268;2022-07-29T08:11:47;4.97;;;4.47;;
1344;SDS011;15375;48.540;9.268;2022-07-29T08:14:12;5.90;;;4.80;;
1344;SDS011;15375;48.540;9.268;2022-07-29T08:16:38;5.00;;;4.60;;
1344;SDS011;15375;48.540;9.268;2022-07-29T08:19:05;5.80;;;5.30;;
1344;SDS011;15375;48.540;9.268;2022-07-29T08:21:30;5.63;;;5.10;;
1344;SDS011;15375;48.540;9.268;2022-07-29T08:23:56;5.37;;;4.97;;
1344;SDS011;15375;48.540;9.268;2022-07-29T08:26:41;5.53;;;4.80;;
1344;SDS011;15375;48.540;9.268;2022-07-29T08:29:07;5.37;;;4.97;;
1344;SDS011;15375;48.540;9.268;2022-07-29T08:31:33;5.60;;;5.10;;
1344;SDS011;15375;48.540;9.268;2022-07-29T08:33:58;5.20;;;4.90;;
1344;SDS011;15375;48.540;9.268;2022-07-29T08:36:24;5.77;;;5.20;;
1344;SDS011;15375;48.540;9.268;2022-07-29T08:38:51;6.07;;;5.47;;
1344;SDS011;15375;48.540;9.268;2022-07-29T08:41:17;5.60;;;5.20;;
1344;SDS011;15375;48.540;9.268;2022-07-29T08:43:43;6.60;;;4.83;;
1344;SDS011;15375;48.540;9.268;2022-07-29T08:46:09;7.07;;;6.47;;
1344;SDS011;15375;48.540;9.268;2022-07-29T08:48:35;6.47;;;5.87;;
1344;SDS011;15375;48.540;9.268;2022-07-29T08:51:01;6.13;;;5.63;;
1344;SDS011;15375;48.540;9.268;2022-07-29T08:53:27;5.83;;;5.33;;
1344;SDS011;15375;48.540;9.268;2022-07-29T08:55:53;6.17;;;5.50;;
1344;SDS011;15375;48.540;9.268;2022-07-29T08:58:20;6.70;;;6.10;;
1344;SDS011;15375;48.540;9.268;2022-07-29T09:00:49;5.60;;;5.20;;
1344;SDS011;15375;48.540;9.268;2022-07-29T09:03:19;5.93;;;5.43;;
1344;SDS011;15375;48.540;9.268;2022-07-29T09:05:47;5.33;;;4.93;;
1344;SDS011;15375;48.540;9.268;2022-07-29T09:08:13;6.60;;;6.03;;
1344;SDS011;15375;48.540;9.268;2022-07-29T09:10:40;6.83;;;5.73;;
1344;SDS011;15375;48.540;9.268;2022-07-29T09:13:05;6.13;;;5.73;;
1344;SDS011;15375;48.540;9.268;2022-07-29T09:15:31;6.73;;;5.67;;
1344;SDS011;15375;48.540;9.268;2022-07-29T09:17:57;5.97;;;5.40;;
1344;SDS011;15375;48.540;9.268;2022-07-29T09:20:24;7.70;;;6.03;;
1344;SDS011;15375;48.540;9.268;2022-07-29T09:22:50;5.40;;;5.00;;
1344;SDS011;15375;48.540;9.268;2022-07-29T09:28:05;6.13;;;5.73;;
1344;SDS011;15375;48.540;9.268;2022-07-29T09:30:54;5.70;;;5.30;;
1344;SDS011;15375;48.540;9.268;2022-07-29T09:33:23;15.20;;;5.80;;
1344;SDS011;15375;48.540;9.268;2022-07-29T09:35:59;5.70;;;5.30;;
1344;SDS011;15375;48.540;9.268;2022-07-29T09:38:27;5.83;;;5.43;;
1344;SDS011;15375;48.540;9.268;2022-07-29T09:40:57;5.83;;;5.40;;
1344;SDS011;15375;48.540;9.268;2022-07-29T09:43:23;5.50;;;5.10;;
1344;SDS011;15375;48.540;9.268;2022-07-29T09:45:49;6.60;;;6.20;;
1344;SDS011;15375;48.540;9.268;2022-07-29T09:48:15;5.93;;;5.53;;
1344;SDS011;15375;48.540;9.268;2022-07-29T09:50:45;6.10;;;5.70;;
1344;SDS011;15375;48.540;9.268;2022-07-29T09:53:33;6.00;;;5.50;;
1344;SDS011;15375;48.540;9.268;2022-07-29T09:56:01;7.07;;;6.40;;
1344;SDS011;15375;48.540;9.268;2022-07-29T09:58:27;9.53;;;6.17;;
1344;SDS011;15375;48.540;9.268;2022-07-29T10:00:53;7.17;;;6.33;;
1344;SDS011;15375;48.540;9.268;2022-07-29T10:03:19;6.10;;;5.60;;
1344;SDS011;15375;48.540;9.268;2022-07-29T10:05:45;5.43;;;4.93;;
1344;SDS011;15375;48.540;9.268;2022-07-29T10:08:11;5.53;;;5.13;;
1344;SDS011;15375;48.540;9.268;2022-07-29T10:10:38;6.50;;;5.90;;
1344;SDS011;15375;48.540;9.268;2022-07-29T10:13:13;9.00;;;5.23;;
1344;SDS011;15375;48.540;9.268;2022-07-29T10:15:40;7.40;;;6.80;;
1344;SDS011;15375;48.540;9.268;2022-07-29T10:18:09;6.60;;;6.10;;
1344;SDS011;15375;48.540;9.268;2022-07-29T10:20:36;7.70;;;6.53;;
1344;SDS011;15375;48.540;9.268;2022-07-29T10:23:02;6.03;;;5.63;;
1344;SDS011;15375;48.540;9.268;2022-07-29T10:25:28;6.73;;;6.13;;
1344;SDS011;15375;48.540;9.268;2022-07-29T10:27:54;9.23;;;5.93;;
1344;SDS011;15375;48.540;9.268;2022-07-29T10:30:21;6.20;;;5.60;;
1344;SDS011;15375;48.540;9.268;2022-07-29T10:43:51;6.10;;;5.60;;
1344;SDS011;15375;48.540;9.268;2022-07-29T10:46:39;6.10;;;5.60;;
1344;SDS011;15375;48.540;9.268;2022-07-29T10:59:43;6.33;;;5.83;;
1344;SDS011;15375;48.540;9.268;2022-07-29T11:07:23;5.93;;;5.43;;
1344;SDS011;15375;48.540;9.268;2022-07-29T11:12:50;6.30;;;5.70;;
1344;SDS011;15375;48.540;9.268;2022-07-29T11:15:20;6.43;;;6.03;;
1344;SDS011;15375;48.540;9.268;2022-07-29T11:23:19;7.50;;;6.80;;
1344;SDS011;15375;48.540;9.268;2022-07-29T11:29:05;6.93;;;6.33;;
1344;SDS011;15375;48.540;9.268;2022-07-29T11:31:40;6.80;;;6.30;;
1344;SDS011;15375;48.540;9.268;2022-07-29T11:44:58;6.77;;;6.17;;
1344;SDS011;15375;48.540;9.268;2022-07-29T11:47:31;8.03;;;5.83;;
1344;SDS011;15375;48.540;9.268;2022-07-29T11:50:02;7.03;;;6.27;;
1344;SDS011;15375;48.540;9.268;2022-07-29T11:52:37;6.10;;;5.70;;
1344;SDS011;15375;48.540;9.268;2022-07-29T11:55:08;6.67;;;6.07;;
1344;SDS011;15375;48.540;9.268;2022-07-29T11:57:35;9.17;;;6.17;;
1344;SDS011;15375;48.540;9.268;2022-07-29T12:00:03;6.63;;;6.13;;
1344;SDS011;15375;48.540;9.268;2022-07-29T12:02:39;9.07;;;6.17;;
1344;SDS011;15375;48.540;9.268;2022-07-29T12:05:06;6.30;;;4.87;;
1344;SDS011;15375;48.540;9.268;2022-07-29T12:07:33;5.07;;;4.67;;
1344;SDS011;15375;48.540;9.268;2022-07-29T12:09:59;5.20;;;4.70;;
1344;SDS011;15375;48.540;9.268;2022-07-29T12:12:25;5.20;;;4.80;;
1344;SDS011;15375;48.540;9.268;2022-07-29T12:14:51;5.03;;;4.63;;
1344;SDS011;15375;48.540;9.268;2022-07-29T12:19:54;4.50;;;4.17;;
1344;SDS011;15375;48.540;9.268;2022-07-29T12:22:27;4.83;;;4.43;;
1344;SDS011;15375;48.540;9.268;2022-07-29T12:24:54;4.70;;;4.03;;
1344;SDS011;15375;48.540;9.268;2022-07-29T12:27:21;4.47;;;4.17;;
1344;SDS011;15375;48.540;9.268;2022-07-29T12:29:59;3.90;;;3.53;;
1344;SDS011;15375;48.540;9.268;2022-07-29T12:32:40;5.60;;;5.07;;
1344;SDS011;15375;48.540;9.268;2022-07-29T12:35:12;4.23;;;3.93;;
1344;SDS011;15375;48.540;9.268;2022-07-29T12:37:42;4.63;;;4.33;;
1344;SDS011;15375;48.540;9.268;2022-07-29T12:40:09;4.97;;;4.60;;
1344;SDS011;15375;48.540;9.268;2022-07-29T12:42:37;4.67;;;4.27;;
1344;SDS011;15375;48.540;9.268;2022-07-29T12:45:03;4.67;;;4.27;;
1344;SDS011;15375;48.540;9.268;2022-07-29T12:47:29;5.23;;;4.73;;
1344;SDS011;15375;48.540;9.268;2022-07-29T12:50:14;4.40;;;4.10;;
1344;SDS011;15375;48.540;9.268;2022-07-29T12:52:42;5.50;;;4.03;;
1344;SDS011;15375;48.540;9.268;2022-07-29T12:55:09;4.63;;;4.33;;
1344;SDS011;15375;48.540;9.268;2022-07-29T12:57:44;7.10;;;4.57;;
1344;SDS011;15375;48.540;9.268;2022-07-29T13:00:12;5.20;;;4.80;;
1344;SDS011;15375;48.540;9.268;2022-07-29T13:02:38;5.40;;;4.90;;
1344;SDS011;15375;48.540;9.268;2022-07-29T13:05:06;4.67;;;4.20;;
1344;SDS011;15375;48.540;9.268;2022-07-29T13:07:37;8.33;;;5.17;;
1344;SDS011;15375;48.540;9.268;2022-07-29T13:10:19;5.93;;;4.70;;
1344;SDS011;15375;48.540;9.268;2022-07-29T13:13:28;6.53;;;5.50;;
1344;SDS011;15375;48.540;9.268;2022-07-29T13:15:40;5.80;;;5.40;;
1344;SDS011;15375;48.540;9.268;2022-07-29T13:18:26;5.80;;;5.30;;
1344;SDS011;15375;48.540;9.268;2022-07-29T13:20:52;5.63;;;5.17;;
1344;SDS011;15375;48.540;9.268;2022-07-29T13:23:17;5.50;;;5.00;;
1344;SDS011;15375;48.540;9.268;2022-07-29T13:25:43;5.60;;;5.10;;
1344;SDS011;15375;48.540;9.268;2022-07-29T13:28:08;5.93;;;5.33;;
1344;SDS011;15375;48.540;9.268;2022-07-29T13:30:34;6.13;;;5.63;;
1344;SDS011;15375;48.540;9.268;2022-07-29T13:33:00;5.40;;;5.00;;
1344;SDS011;15375;48.540;9.268;2022-07-29T13:35:25;5.53;;;4.90;;
1344;SDS011;15375;48.540;9.268;2022-07-29T13:37:50;5.90;;;5.30;;
1344;SDS011;15375;48.540;9.268;2022-07-29T13:40:16;5.47;;;5.07;;
1344;SDS011;15375;48.540;9.268;2022-07-29T13:42:42;6.43;;;5.93;;
1344;SDS011;15375;48.540;9.268;2022-07-29T13:45:08;5.83;;;5.23;;
1344;SDS011;15375;48.540;9.268;2022-07-29T13:47:35;11.53;;;7.53;;
1344;SDS011;15375;48.540;9.268;2022-07-29T13:50:01;8.30;;;7.50;;
1344;SDS011;15375;48.540;9.268;2022-07-29T13:52:27;7.63;;;6.93;;
1344;SDS011;15375;48.540;9.268;2022-07-29T13:54:53;10.03;;;8.03;;
1344;SDS011;15375;48.540;9.268;2022-07-29T13:57:18;9.47;;;8.50;;
1344;SDS011;15375;48.540;9.268;2022-07-29T13:59:44;7.17;;;6.47;;
1344;SDS011;15375;48.540;9.268;2022-07-29T14:02:12;7.70;;;7.00;;
1344;SDS011;15375;48.540;9.268;2022-07-29T14:04:38;9.23;;;8.43;;
1344;SDS011;15375;48.540;9.268;2022-07-29T14:07:04;9.80;;;8.80;;
1344;SDS011;15375;48.540;9.268;2022-07-29T14:09:30;8.53;;;7.73;;
1344;SDS011;15375;48.540;9.268;2022-07-29T14:11:56;8.63;;;6.90;;
1344;SDS011;15375;48.540;9.268;2022-07-29T14:14:22;8.37;;;7.67;;
1344;SDS011;15375;48.540;9.268;2022-07-29T14:16:47;10.60;;;8.10;;
1344;SDS011;15375;48.540;9.268;2022-07-29T14:19:13;8.70;;;8.00;;
1344;SDS011;15375;48.540;9.268;2022-07-29T14:21:38;9.47;;;8.23;;
1344;SDS011;15375;48.540;9.268;2022-07-29T14:24:04;8.33;;;7.57;;
1344;SDS011;15375;48.540;9.268;2022-07-29T14:26:30;7.50;;;6.80;;
1344;SDS011;15375;48.540;9.268;2022-07-29T14:28:56;7.50;;;6.90;;
1344;SDS011;15375;48.540;9.268;2022-07-29T14:31:21;7.93;;;7.10;;
1344;SDS011;15375;48.540;9.268;2022-07-29T14:33:46;7.50;;;6.70;;
1344;SDS011;15375;48.540;9.268;2022-07-29T14:36:12;7.57;;;6.97;;
1344;SDS011;15375;48.540;9.268;2022-07-29T14:38:37;7.70;;;6.93;;
1344;SDS011;15375;48.540;9.268;2022-07-29T14:41:03;8.43;;;7.63;;
1344;SDS011;15375;48.540;9.268;2022-07-29T14:43:29;7.40;;;6.80;;
1344;SDS011;15375;48.540;9.268;2022-07-29T14:45:54;8.00;;;6.67;;
1344;SDS011;15375;48.540;9.268;2022-07-29T14:48:20;7.70;;;7.10;;
1344;SDS011;15375;48.540;9.268;2022-07-29T14:50:45;7.27;;;6.57;;
1344;SDS011;15375;48.540;9.268;2022-07-29T14:53:11;7.60;;;7.10;;
1344;SDS011;15375;48.540;9.268;2022-07-29T14:55:38;8.27;;;7.57;;
1344;SDS011;15375;48.540;9.268;2022-07-29T14:58:04;8.23;;;7.63;;
1344;SDS011;15375;48.540;9.268;2022-07-29T15:00:29;7.73;;;6.57;;
1344;SDS011;15375;48.540;9.268;2022-07-29T15:02:57;7.80;;;7.20;;
1344;SDS011;15375;48.540;9.268;2022-07-29T15:05:23;7.13;;;6.63;;
1344;SDS011;15375;48.540;9.268;2022-07-29T15:07:48;6.43;;;5.93;;
1344;SDS011;15375;48.540;9.268;2022-07-29T15:10:14;7.30;;;6.63;;
1344;SDS011;15375;48.540;9.268;2022-07-29T15:12:39;7.77;;;6.97;;
1344;SDS011;15375;48.540;9.268;2022-07-29T15:15:05;7.30;;;6.60;;
1344;SDS011;15375;48.540;9.268;2022-07-29T15:17:32;7.80;;;7.20;;
1344;SDS011;15375;48.540;9.268;2022-07-29T15:19:57;7.47;;;6.77;;
1344;SDS011;15375;48.540;9.268;2022-07-29T15:22:23;8.00;;;7.30;;
1344;SDS011;15375;48.540;9.268;2022-07-29T15:24:48;8.47;;;7.67;;
1344;SDS011;15375;48.540;9.268;2022-07-29T15:27:14;7.77;;;6.87;;
1344;SDS011;15375;48.540;9.268;2022-07-29T15:29:40;7.37;;;6.67;;
1344;SDS011;15375;48.540;9.268;2022-07-29T15:32:06;6.87;;;6.37;;
1344;SDS011;15375;48.540;9.268;2022-07-29T15:34:32;7.20;;;6.60;;
1344;SDS011;15375;48.540;9.268;2022-07-29T15:36:58;7.80;;;7.20;;
1344;SDS011;15375;48.540;9.268;2022-07-29T15:39:23;6.80;;;6.20;;
1344;SDS011;15375;48.540;9.268;2022-07-29T15:41:49;8.17;;;7.33;;
1344;SDS011;15375;48.540;9.268;2022-07-29T15:44:15;7.90;;;7.10;;
1344;SDS011;15375;48.540;9.268;2022-07-29T15:46:40;7.97;;;7.27;;
1344;SDS011;15375;48.540;9.268;2022-07-29T15:49:24;6.70;;;6.30;;
1344;SDS011;15375;48.540;9.268;2022-07-29T15:51:55;7.87;;;7.23;;
1344;SDS011;15375;48.540;9.268;2022-07-29T15:54:24;8.63;;;7.87;;
1344;SDS011;15375;48.540;9.268;2022-07-29T15:56:50;10.27;;;7.70;;
1344;SDS011;15375;48.540;9.268;2022-07-29T15:59:15;8.60;;;7.90;;
1344;SDS011;15375;48.540;9.268;2022-07-29T16:01:41;7.70;;;7.00;;
1344;SDS011;15375;48.540;9.268;2022-07-29T16:04:06;7.57;;;7.03;;
1344;SDS011;15375;48.540;9.268;2022-07-29T16:06:31;8.37;;;7.77;;
1344;SDS011;15375;48.540;9.268;2022-07-29T16:08:57;8.30;;;7.60;;
1344;SDS011;15375;48.540;9.268;2022-07-29T16:11:24;7.03;;;6.53;;
1344;SDS011;15375;48.540;9.268;2022-07-29T16:13:50;9.10;;;7.60;;
1344;SDS011;15375;48.540;9.268;2022-07-29T16:16:15;8.20;;;7.43;;
1344;SDS011;15375;48.540;9.268;2022-07-29T16:18:42;7.07;;;6.50;;
1344;SDS011;15375;48.540;9.268;2022-07-29T16:21:08;7.77;;;7.20;;